Time;durP1;ratioP1;P1;durP2;ratioP2;P2;SDS_P1;SDS_P2;PMS_P1;PMS_P2;Temp;Humidity;BMP_temperature;BMP_pressure;BME280_temperature;BME280_humidity;BME280_pressure;Samples;Min_cycle;Max_cycle;Signal;HPM_P1;HPM_P2
2022/01/06 05:02:35;;;;;;;13.93;4.82;;;3.20;99.90;;;;;;4975033;28;90169;-78
2022/01/06 05:05:00;;;;;;;10.60;4.75;;;3.20;99.90;;;;;;4978506;28;89278;-77
2022/01/06 05:07:26;;;;;;;14.90;5.30;;;3.20;99.90;;;;;;4978519;28;90112;-77
2022/01/06 05:09:52;;;;;;;13.68;4.38;;;3.20;99.90;;;;;;4977526;28;91282;-77
2022/01/06 05:12:17;;;;;;;10.10;4.20;;;3.30;99.90;;;;;;4960096;28;89256;-77
2022/01/06 05:14:43;;;;;;;13.75;4.82;;;3.30;99.90;;;;;;4997280;22;89272;-74
2022/01/06 05:17:08;;;;;;;9.70;4.10;;;3.30;99.90;;;;;;4996824;28;90341;-73
2022/01/06 05:19:34;;;;;;;12.10;4.60;;;3.30;99.90;;;;;;4997078;28;90710;-73
2022/01/06 05:22:00;;;;;;;10.13;3.90;;;3.30;99.90;;;;;;4997706;28;89186;-74
2022/01/06 05:24:26;;;;;;;16.65;4.90;;;3.40;99.90;;;;;;4997264;28;90103;-75
2022/01/06 05:26:56;;;;;;;12.25;4.40;;;3.40;99.90;;;;;;4996683;28;91997;-75
2022/01/06 05:29:23;;;;;;;11.05;4.25;;;3.40;99.90;;;;;;4997152;28;91327;-75
2022/01/06 05:31:49;;;;;;;13.82;5.05;;;3.40;99.90;;;;;;4997342;28;89191;-75
2022/01/06 05:34:15;;;;;;;11.63;4.95;;;3.40;99.90;;;;;;4996727;28;91268;-74
2022/01/06 05:36:40;;;;;;;16.10;4.10;;;3.30;99.90;;;;;;4996745;28;91130;-74
2022/01/06 05:39:06;;;;;;;11.75;4.22;;;3.20;99.90;;;;;;4996733;28;89269;-73
2022/01/06 05:41:32;;;;;;;13.38;4.25;;;3.20;99.90;;;;;;4995560;28;90191;-74
2022/01/06 05:43:59;;;;;;;14.27;5.18;;;3.10;99.90;;;;;;4996584;28;89354;-74
2022/01/06 05:46:25;;;;;;;13.02;5.07;;;2.90;99.90;;;;;;4995430;28;91830;-74
2022/01/06 05:48:50;;;;;;;12.05;4.43;;;2.80;99.90;;;;;;4996853;28;89251;-74
2022/01/06 05:51:16;;;;;;;10.40;4.38;;;2.80;99.90;;;;;;4995697;28;89350;-74
2022/01/06 05:53:41;;;;;;;15.52;5.05;;;2.80;99.90;;;;;;4996307;28;89699;-74
2022/01/06 05:56:07;;;;;;;14.98;5.88;;;2.70;99.90;;;;;;4997298;28;90217;-76
2022/01/06 05:58:33;;;;;;;15.07;5.50;;;2.70;99.90;;;;;;5002538;28;89559;-75
2022/01/06 06:00:58;;;;;;;17.13;6.50;;;2.70;99.90;;;;;;5004433;28;89123;-77
2022/01/06 06:03:27;;;;;;;15.68;6.60;;;2.70;99.90;;;;;;5002434;28;90194;-75
2022/01/06 06:05:56;;;;;;;22.38;6.78;;;2.70;99.90;;;;;;5001581;28;90998;-75
2022/01/06 06:08:22;;;;;;;21.13;6.90;;;2.60;99.90;;;;;;5003094;28;89702;-75
2022/01/06 06:10:48;;;;;;;16.25;6.40;;;2.70;99.90;;;;;;5001213;28;89246;-76
2022/01/06 06:13:13;;;;;;;14.63;6.50;;;2.60;99.90;;;;;;5000533;28;89398;-75
2022/01/06 06:15:39;;;;;;;20.65;6.70;;;2.50;99.90;;;;;;4999721;28;89274;-75
2022/01/06 06:18:06;;;;;;;23.42;7.38;;;2.50;99.90;;;;;;5000059;28;90903;-75
2022/01/06 06:20:32;;;;;;;13.48;6.82;;;2.50;99.90;;;;;;5000042;28;89408;-75
2022/01/06 06:22:58;;;;;;;21.55;7.68;;;2.40;99.90;;;;;;5000662;28;89964;-75
2022/01/06 06:25:25;;;;;;;20.15;7.45;;;2.40;99.90;;;;;;5000118;28;90013;-75
2022/01/06 06:27:50;;;;;;;22.58;7.32;;;2.30;99.90;;;;;;5000479;28;89238;-75
2022/01/06 06:30:16;;;;;;;18.17;7.63;;;2.20;99.90;;;;;;5000511;28;90215;-76
2022/01/06 06:32:42;;;;;;;14.07;6.57;;;2.10;99.90;;;;;;5000610;28;90009;-76
2022/01/06 06:35:08;;;;;;;18.48;7.32;;;2.00;99.90;;;;;;5000105;28;90996;-76
2022/01/06 06:37:33;;;;;;;23.25;7.88;;;1.90;99.90;;;;;;5000511;28;89819;-75
2022/01/06 06:39:59;;;;;;;15.57;7.82;;;1.90;99.90;;;;;;5000072;28;89294;-76
2022/01/06 06:42:25;;;;;;;20.20;8.38;;;2.00;99.90;;;;;;5000768;28;89672;-76
2022/01/06 06:44:51;;;;;;;18.90;8.25;;;1.90;99.90;;;;;;5000798;28;90250;-76
2022/01/06 06:47:17;;;;;;;23.30;8.55;;;1.90;99.90;;;;;;5001283;28;90202;-76
2022/01/06 06:49:43;;;;;;;22.05;8.20;;;1.80;99.90;;;;;;5000383;28;89192;-76
2022/01/06 06:52:08;;;;;;;19.15;7.78;;;1.80;99.90;;;;;;4997745;28;91448;-76
2022/01/06 06:54:34;;;;;;;25.08;9.07;;;1.70;99.90;;;;;;4998548;28;90292;-76
2022/01/06 06:56:59;;;;;;;24.30;8.90;;;1.70;99.90;;;;;;4999168;28;90806;-76
2022/01/06 06:59:25;;;;;;;23.83;8.88;;;1.70;99.90;;;;;;4998974;28;89236;-76
2022/01/06 07:01:51;;;;;;;25.10;8.60;;;1.70;99.90;;;;;;4999505;28;89682;-76
2022/01/06 07:04:16;;;;;;;22.85;9.00;;;1.80;99.90;;;;;;4998992;28;90254;-76
2022/01/06 07:06:42;;;;;;;26.83;9.60;;;1.90;99.90;;;;;;4999128;28;89630;-76
2022/01/06 07:09:07;;;;;;;22.73;9.40;;;2.00;99.90;;;;;;4998283;28;89330;-76
2022/01/06 07:11:33;;;;;;;20.77;8.85;;;2.00;99.90;;;;;;4999427;28;89749;-76
2022/01/06 07:13:59;;;;;;;26.02;9.02;;;2.10;99.90;;;;;;4998516;28;89928;-76
2022/01/06 07:16:24;;;;;;;18.63;8.77;;;2.10;99.90;;;;;;4999213;28;89196;-76
2022/01/06 07:18:50;;;;;;;28.48;9.77;;;2.20;99.90;;;;;;4998685;28;90575;-76
2022/01/06 07:21:15;;;;;;;20.17;9.15;;;2.20;99.90;;;;;;4998807;28;89800;-75
2022/01/06 07:23:41;;;;;;;22.88;9.80;;;2.20;99.90;;;;;;4998528;28;90882;-75
2022/01/06 07:26:07;;;;;;;20.73;9.40;;;2.20;99.90;;;;;;4998698;28;89834;-75
2022/01/06 07:28:32;;;;;;;25.77;9.10;;;2.20;99.90;;;;;;4999309;28;89633;-75
2022/01/06 07:30:58;;;;;;;23.75;8.35;;;2.20;99.90;;;;;;4998722;28;90610;-76
2022/01/06 07:33:24;;;;;;;27.75;9.55;;;2.20;99.90;;;;;;4998832;28;89347;-75
2022/01/06 07:35:49;;;;;;;23.48;9.45;;;2.30;99.90;;;;;;4998590;28;89541;-76
2022/01/06 07:38:15;;;;;;;20.33;8.52;;;2.30;99.90;;;;;;5008085;28;89211;-76
2022/01/06 07:40:41;;;;;;;26.98;9.57;;;2.30;99.90;;;;;;5018064;28;88728;-76
2022/01/06 07:43:06;;;;;;;18.35;8.52;;;2.40;99.90;;;;;;5005451;28;90801;-75
2022/01/06 07:45:32;;;;;;;21.73;8.68;;;2.40;99.90;;;;;;4998744;28;90072;-75
2022/01/06 07:48:01;;;;;;;23.60;8.88;;;2.40;99.90;;;;;;4998966;28;89632;-75
2022/01/06 07:50:30;;;;;;;25.77;9.00;;;2.30;99.90;;;;;;4998360;28;89289;-73
2022/01/06 07:52:57;;;;;;;24.20;9.30;;;2.40;99.90;;;;;;4998175;28;89487;-74
2022/01/06 07:55:22;;;;;;;29.45;8.88;;;2.40;99.90;;;;;;4998229;28;90314;-74
2022/01/06 07:57:49;;;;;;;23.75;8.70;;;2.40;99.90;;;;;;4999147;28;89419;-75
2022/01/06 08:00:15;;;;;;;21.02;9.15;;;2.40;99.90;;;;;;4999240;28;89048;-75
2022/01/06 08:02:41;;;;;;;27.60;8.75;;;2.50;99.90;;;;;;4997979;28;90561;-74
2022/01/06 08:05:10;;;;;;;25.58;9.27;;;2.50;99.90;;;;;;4998663;28;89859;-74
2022/01/06 08:07:36;;;;;;;18.17;8.38;;;2.50;99.90;;;;;;4998334;28;90307;-75
2022/01/06 08:10:03;;;;;;;24.00;9.05;;;2.50;99.90;;;;;;4998402;28;89277;-75
2022/01/06 08:12:28;;;;;;;22.95;9.27;;;2.50;99.90;;;;;;4997916;28;92376;-76
2022/01/06 08:14:54;;;;;;;24.85;8.98;;;2.50;99.90;;;;;;4998239;28;89126;-74
2022/01/06 08:17:19;;;;;;;23.63;9.35;;;2.50;99.90;;;;;;4998463;28;89607;-76
2022/01/06 08:19:47;;;;;;;23.73;9.90;;;2.50;99.90;;;;;;4997680;28;89272;-75
2022/01/06 08:22:13;;;;;;;26.48;9.20;;;2.50;99.90;;;;;;4998132;28;89884;-75
2022/01/06 08:24:38;;;;;;;24.77;10.18;;;2.40;99.90;;;;;;4996902;28;91784;-76
2022/01/06 08:27:08;;;;;;;25.77;9.70;;;2.50;99.90;;;;;;4998030;28;89265;-76
2022/01/06 08:29:38;;;;;;;23.63;9.65;;;2.50;99.90;;;;;;4997064;28;92318;-74
2022/01/06 08:32:05;;;;;;;24.98;10.05;;;2.50;99.90;;;;;;4995977;28;94042;-75
2022/01/06 08:34:31;;;;;;;24.92;9.82;;;2.50;99.90;;;;;;4995809;28;94759;-75
2022/01/06 08:36:56;;;;;;;24.85;9.95;;;2.40;99.90;;;;;;4998316;28;89378;-76
2022/01/06 08:39:22;;;;;;;30.15;10.88;;;2.40;99.90;;;;;;4997942;28;89357;-75
2022/01/06 08:41:49;;;;;;;24.60;9.60;;;2.40;99.90;;;;;;4997392;28;90018;-74
2022/01/06 08:44:14;;;;;;;21.90;10.15;;;2.40;99.90;;;;;;4997137;28;90087;-76
2022/01/06 08:46:41;;;;;;;22.83;9.68;;;2.40;99.90;;;;;;4997461;28;89259;-76
2022/01/06 08:49:11;;;;;;;25.88;10.45;;;2.30;99.90;;;;;;4998857;28;89047;-74
2022/01/06 08:51:37;;;;;;;32.80;10.73;;;2.40;99.90;;;;;;4997355;28;89867;-76
2022/01/06 08:54:03;;;;;;;26.30;11.25;;;2.50;99.90;;;;;;4996473;28;90778;-74
2022/01/06 08:56:28;;;;;;;22.20;11.70;;;2.50;99.90;;;;;;4996649;28;90141;-74
2022/01/06 08:58:55;;;;;;;32.88;11.02;;;2.70;99.90;;;;;;4995600;28;90578;-75
2022/01/06 09:01:21;;;;;;;24.25;10.95;;;2.90;99.90;;;;;;4996979;28;89577;-76
2022/01/06 09:03:46;;;;;;;26.98;11.60;;;3.00;99.90;;;;;;4996625;28;89178;-75
2022/01/06 09:06:12;;;;;;;30.45;11.27;;;3.10;99.90;;;;;;4997150;28;89242;-77
2022/01/06 09:08:38;;;;;;;29.55;10.82;;;3.10;99.90;;;;;;4997078;28;89515;-74
2022/01/06 09:11:07;;;;;;;27.17;11.55;;;3.10;99.90;;;;;;4996694;28;91242;-74
2022/01/06 09:13:32;;;;;;;23.65;11.63;;;3.00;99.90;;;;;;4997078;28;89696;-74
2022/01/06 09:15:58;;;;;;;25.90;11.02;;;2.90;99.90;;;;;;4996413;28;89314;-75
2022/01/06 09:18:23;;;;;;;25.05;11.23;;;2.90;99.90;;;;;;4996663;28;90043;-75
2022/01/06 09:20:49;;;;;;;27.40;11.52;;;2.90;99.90;;;;;;4996531;28;90905;-77
2022/01/06 09:23:15;;;;;;;24.85;11.02;;;2.90;99.90;;;;;;4996689;28;91166;-75
2022/01/06 09:25:40;;;;;;;26.00;11.68;;;2.90;99.90;;;;;;4996915;28;89138;-74
2022/01/06 09:28:06;;;;;;;28.45;11.50;;;2.90;99.90;;;;;;4997624;28;92013;-77
2022/01/06 09:30:32;;;;;;;26.88;11.32;;;2.90;99.90;;;;;;4999603;28;89879;-76
2022/01/06 09:32:58;;;;;;;24.45;11.60;;;2.90;99.90;;;;;;5002712;28;89244;-75
2022/01/06 09:35:23;;;;;;;30.98;11.75;;;2.90;99.90;;;;;;5003671;28;89462;-78
2022/01/06 09:37:49;;;;;;;24.50;11.45;;;2.90;99.90;;;;;;5004157;28;89369;-78
2022/01/06 09:40:15;;;;;;;27.20;11.75;;;2.90;99.90;;;;;;5006701;28;91494;-77
2022/01/06 09:42:42;;;;;;;27.67;11.75;;;3.00;99.90;;;;;;5005600;28;89293;-76
2022/01/06 09:45:08;;;;;;;27.17;11.88;;;3.20;99.90;;;;;;5001294;28;90327;-77
2022/01/06 09:47:33;;;;;;;27.33;12.45;;;3.60;99.90;;;;;;5004634;28;89989;-78
2022/01/06 09:49:59;;;;;;;26.00;11.30;;;3.80;99.90;;;;;;5002943;28;90147;-78
2022/01/06 09:52:25;;;;;;;26.52;10.80;;;4.00;99.90;;;;;;5002620;28;89631;-77
2022/01/06 09:54:51;;;;;;;22.52;10.95;;;4.00;99.90;;;;;;5001123;28;89250;-77
2022/01/06 09:57:17;;;;;;;23.67;10.95;;;4.00;99.90;;;;;;5001470;28;89243;-78
2022/01/06 09:59:44;;;;;;;29.98;11.23;;;3.90;99.90;;;;;;5003438;28;89929;-78
2022/01/06 10:02:16;;;;;;;25.60;10.57;;;4.00;99.90;;;;;;5002948;28;88896;-77
2022/01/06 10:04:56;;;;;;;22.58;10.43;;;4.20;99.90;;;;;;4998752;28;89274;-76
2022/01/06 10:07:22;;;;;;;21.65;9.85;;;4.20;99.90;;;;;;5000095;28;89682;-77
2022/01/06 10:09:47;;;;;;;25.13;10.05;;;4.50;99.90;;;;;;5002189;28;91114;-78
2022/01/06 10:12:13;;;;;;;21.98;9.18;;;4.60;99.90;;;;;;5003983;28;89949;-78
2022/01/06 10:14:44;;;;;;;18.95;8.48;;;4.70;99.90;;;;;;5004581;28;89194;-78
2022/01/06 10:17:15;;;;;;;17.02;8.32;;;4.80;99.90;;;;;;5004026;28;89269;-77
2022/01/06 10:19:42;;;;;;;23.05;7.97;;;4.80;99.90;;;;;;5000567;28;90079;-77
2022/01/06 10:22:18;;;;;;;13.27;6.60;;;4.80;99.90;;;;;;5000373;28;89630;-77
2022/01/06 10:24:46;;;;;;;19.65;7.82;;;4.90;99.90;;;;;;5000266;28;89380;-77
2022/01/06 10:27:14;;;;;;;16.98;7.30;;;5.00;99.90;;;;;;5000735;28;89061;-76
2022/01/06 10:29:44;;;;;;;14.48;6.38;;;5.20;99.90;;;;;;5000753;28;92292;-76
2022/01/06 10:32:25;;;;;;;18.00;6.75;;;5.20;99.90;;;;;;5004370;28;89246;-76
2022/01/06 10:34:55;;;;;;;18.90;6.38;;;5.30;99.90;;;;;;5001245;28;90353;-77
2022/01/06 10:37:26;;;;;;;17.45;7.10;;;5.50;99.90;;;;;;5002511;28;92033;-77
2022/01/06 10:39:57;;;;;;;16.40;6.45;;;5.50;99.90;;;;;;5005929;28;89167;-78
2022/01/06 10:42:32;;;;;;;14.05;6.65;;;5.70;99.90;;;;;;5004639;28;89828;-76
2022/01/06 10:45:08;;;;;;;13.35;5.80;;;5.80;99.90;;;;;;5004924;28;89340;-78
2022/01/06 10:47:45;;;;;;;15.90;5.85;;;5.80;99.90;;;;;;5004818;28;89235;-77
2022/01/06 10:50:10;;;;;;;16.80;6.03;;;5.70;99.90;;;;;;5022744;28;89321;-74
2022/01/06 10:52:39;;;;;;;13.70;5.82;;;5.60;99.90;;;;;;5023111;28;88937;-77
2022/01/06 10:55:19;;;;;;;13.25;5.63;;;5.60;99.90;;;;;;5000855;28;89297;-77
2022/01/06 10:58:00;;;;;;;8.90;5.13;;;5.50;99.90;;;;;;5003441;28;89147;-79
2022/01/06 11:00:30;;;;;;;11.80;5.45;;;5.30;99.90;;;;;;5001368;28;90299;-77
2022/01/06 11:03:12;;;;;;;12.57;4.78;;;5.20;99.90;;;;;;5000412;28;91124;-77
2022/01/06 11:05:50;;;;;;;16.25;5.65;;;5.20;99.90;;;;;;4999755;28;89285;-78
2022/01/06 11:08:27;;;;;;;15.65;5.55;;;5.20;99.90;;;;;;5002220;28;92631;-78
2022/01/06 11:13:35;;;;;;;14.32;5.43;;;5.40;99.90;;;;;;4998726;28;89206;-77
2022/01/06 11:16:02;;;;;;;12.23;4.40;;;5.50;99.90;;;;;;5024461;22;89250;-77
2022/01/06 11:18:28;;;;;;;11.77;4.10;;;5.70;99.90;;;;;;5000778;28;88935;-77
2022/01/06 11:21:11;;;;;;;11.50;3.75;;;5.80;99.90;;;;;;5000408;28;89582;-77
2022/01/06 11:23:37;;;;;;;12.90;3.70;;;5.60;99.90;;;;;;4998552;28;91845;-78
2022/01/06 11:26:06;;;;;;;13.13;4.22;;;5.50;99.90;;;;;;4998287;28;90240;-78
2022/01/06 11:28:32;;;;;;;13.52;3.38;;;5.30;99.90;;;;;;4998782;28;91802;-77
2022/01/06 11:31:13;;;;;;;9.93;3.08;;;5.10;99.90;;;;;;4998335;28;92963;-77
2022/01/06 11:33:43;;;;;;;9.70;3.95;;;4.90;99.90;;;;;;4998569;28;91791;-77
2022/01/06 11:36:24;;;;;;;14.93;3.83;;;4.90;99.90;;;;;;5000012;28;89224;-77
2022/01/06 11:38:51;;;;;;;14.55;4.15;;;5.00;99.90;;;;;;4999709;28;89352;-77
2022/01/06 11:41:17;;;;;;;19.08;4.13;;;5.00;99.90;;;;;;4998164;28;92067;-77
2022/01/06 11:43:45;;;;;;;11.70;3.78;;;5.10;99.90;;;;;;4998676;28;92422;-77
2022/01/06 11:46:12;;;;;;;10.73;4.07;;;5.10;99.90;;;;;;4998692;28;89366;-77
2022/01/06 11:48:48;;;;;;;12.77;3.70;;;5.10;99.90;;;;;;5000181;28;90136;-77
2022/01/06 11:51:26;;;;;;;7.55;3.47;;;5.10;99.90;;;;;;4998055;28;93670;-77
2022/01/06 11:53:52;;;;;;;11.68;3.50;;;5.10;99.90;;;;;;4997603;28;92492;-77
2022/01/06 11:56:17;;;;;;;11.48;3.83;;;5.10;99.90;;;;;;4998582;28;89345;-77
2022/01/06 11:58:55;;;;;;;10.93;4.00;;;5.10;99.90;;;;;;4999106;28;91674;-78
2022/01/06 12:01:21;;;;;;;11.15;3.25;;;5.10;99.90;;;;;;4999960;28;89294;-78
2022/01/06 12:03:47;;;;;;;13.40;3.72;;;5.10;99.90;;;;;;4998705;28;92551;-78
2022/01/06 12:06:30;;;;;;;9.75;3.60;;;5.20;99.90;;;;;;4998384;28;89381;-78
2022/01/06 12:08:57;;;;;;;15.63;4.25;;;5.30;99.90;;;;;;4999067;28;92049;-77
2022/01/06 12:11:36;;;;;;;11.00;3.67;;;5.30;99.90;;;;;;4998358;28;91978;-78
2022/01/06 12:14:02;;;;;;;11.63;3.67;;;5.30;99.90;;;;;;4999827;28;89256;-78
2022/01/06 12:16:35;;;;;;;12.40;4.20;;;5.50;99.90;;;;;;4998084;28;90401;-77
2022/01/06 12:19:13;;;;;;;11.55;3.72;;;5.60;99.90;;;;;;4996753;28;92844;-77
2022/01/06 12:21:38;;;;;;;13.20;4.30;;;5.60;99.90;;;;;;4998308;28;90253;-77
2022/01/06 12:24:06;;;;;;;11.73;3.80;;;5.50;99.90;;;;;;4997601;28;89187;-77
2022/01/06 12:26:34;;;;;;;15.35;4.13;;;5.50;99.90;;;;;;4996974;28;89788;-77
2022/01/06 12:29:00;;;;;;;13.00;4.25;;;5.40;99.90;;;;;;4997970;28;89299;-77
2022/01/06 12:31:28;;;;;;;11.65;3.63;;;5.20;99.90;;;;;;4997683;28;89274;-77
2022/01/06 12:33:59;;;;;;;14.63;3.97;;;5.00;99.90;;;;;;4996551;28;91532;-77
2022/01/06 12:36:27;;;;;;;11.30;4.63;;;4.80;99.90;;;;;;4997984;28;89484;-77
2022/01/06 12:38:53;;;;;;;13.27;3.95;;;4.70;99.90;;;;;;4997643;28;89833;-77
2022/01/06 12:41:30;;;;;;;10.90;3.53;;;4.70;99.90;;;;;;4995816;28;93635;-77
2022/01/06 12:43:56;;;;;;;18.20;7.05;;;4.70;99.90;;;;;;4995764;28;93933;-77
2022/01/06 12:46:28;;;;;;;12.93;5.03;;;4.60;99.90;;;;;;4997785;28;89370;-77
2022/01/06 12:48:54;;;;;;;10.05;5.70;;;4.50;99.90;;;;;;4997671;28;90003;-77
2022/01/06 12:51:28;;;;;;;10.60;5.75;;;4.40;99.90;;;;;;4997740;28;90195;-77
2022/01/06 12:54:11;;;;;;;11.98;4.75;;;4.50;99.90;;;;;;4995886;28;92379;-77
2022/01/06 12:56:39;;;;;;;14.32;3.70;;;4.60;99.90;;;;;;4997757;28;89588;-77
2022/01/06 12:59:09;;;;;;;15.40;5.28;;;4.80;99.90;;;;;;4996406;28;92600;-77
2022/01/06 13:01:35;;;;;;;15.25;3.80;;;4.80;99.90;;;;;;4997683;28;90105;-77
2022/01/06 13:04:01;;;;;;;18.90;5.15;;;4.80;99.90;;;;;;4997579;28;89357;-77
2022/01/06 13:06:34;;;;;;;9.75;3.90;;;4.80;99.90;;;;;;4996651;28;90589;-77
2022/01/06 13:09:12;;;;;;;14.73;5.03;;;4.70;99.90;;;;;;4998545;28;90152;-77
2022/01/06 13:11:52;;;;;;;14.70;4.60;;;4.70;99.90;;;;;;5000555;28;90039;-77
2022/01/06 13:14:41;;;;;;;13.13;4.13;;;4.80;99.90;;;;;;5001222;28;91445;-77
2022/01/06 13:17:29;;;;;;;11.02;4.50;;;4.70;99.90;;;;;;5002328;28;89179;-77
2022/01/06 13:20:04;;;;;;;12.82;3.72;;;4.80;99.90;;;;;;4999905;28;89550;-77
2022/01/06 13:25:35;;;;;;;9.60;3.00;;;4.90;99.90;;;;;;4997336;28;88945;-77
2022/01/06 13:28:05;;;;;;;11.68;2.97;;;5.00;99.90;;;;;;4997829;28;89323;-77
2022/01/06 13:30:39;;;;;;;14.15;3.63;;;5.00;99.90;;;;;;4997538;28;89396;-77
2022/01/06 13:33:07;;;;;;;11.50;3.63;;;5.00;99.90;;;;;;4996401;28;90642;-77
2022/01/06 13:35:33;;;;;;;11.13;3.20;;;5.10;99.90;;;;;;4995765;28;92695;-77
2022/01/06 13:37:59;;;;;;;12.38;3.35;;;5.10;99.90;;;;;;4997088;28;89515;-77
2022/01/06 13:40:24;;;;;;;13.85;2.70;;;5.20;99.90;;;;;;4997151;28;89447;-77
2022/01/06 13:42:54;;;;;;;11.00;3.00;;;5.10;99.90;;;;;;4997069;28;89620;-77
2022/01/06 13:47:56;;;;;;;13.20;3.22;;;5.20;99.90;;;;;;4997345;28;89275;-77
2022/01/06 13:53:20;;;;;;;12.77;3.05;;;5.40;99.90;;;;;;4994859;28;89580;-77
2022/01/06 13:56:04;;;;;;;9.57;2.80;;;5.50;99.90;;;;;;4996633;28;89362;-77
2022/01/06 13:58:29;;;;;;;8.45;3.03;;;5.60;99.90;;;;;;4997245;28;90118;-77
2022/01/06 14:00:55;;;;;;;11.70;3.35;;;5.70;99.90;;;;;;4997090;28;89132;-77
2022/01/06 14:03:21;;;;;;;9.95;3.00;;;5.70;99.90;;;;;;4996377;28;89660;-77
2022/01/06 14:05:47;;;;;;;17.77;3.28;;;5.80;99.90;;;;;;4995120;28;92448;-77
2022/01/06 14:08:12;;;;;;;9.93;2.70;;;5.70;99.90;;;;;;4997003;28;89332;-76
2022/01/06 14:10:40;;;;;;;12.68;3.08;;;5.70;99.90;;;;;;4997112;28;100217;-78
2022/01/06 14:13:06;;;;;;;11.75;2.85;;;5.70;99.90;;;;;;4996488;28;90467;-76
2022/01/06 14:15:31;;;;;;;9.93;2.78;;;5.80;99.90;;;;;;4994841;28;91893;-76
2022/01/06 14:17:58;;;;;;;6.75;2.45;;;5.80;99.90;;;;;;4996706;28;89355;-76
2022/01/06 14:20:23;;;;;;;9.30;2.63;;;5.70;99.90;;;;;;4999873;28;89278;-75
2022/01/06 14:22:49;;;;;;;10.18;2.58;;;5.50;99.90;;;;;;4998067;28;93943;-76
2022/01/06 14:25:14;;;;;;;8.65;2.67;;;5.40;99.90;;;;;;4999579;28;90743;-76
2022/01/06 14:27:40;;;;;;;8.95;2.50;;;5.20;99.90;;;;;;4999921;28;89229;-75
2022/01/06 14:30:07;;;;;;;10.13;3.15;;;5.20;99.90;;;;;;4999655;28;89602;-75
2022/01/06 14:32:33;;;;;;;10.60;3.55;;;5.20;99.90;;;;;;4999955;28;90238;-75
2022/01/06 14:34:58;;;;;;;17.60;3.35;;;5.20;99.90;;;;;;4989262;28;91509;-75
2022/01/06 14:37:24;;;;;;;7.45;3.15;;;5.20;99.90;;;;;;4979986;28;89265;-77
2022/01/06 14:39:49;;;;;;;11.38;3.08;;;5.20;99.90;;;;;;4978841;28;92729;-75
2022/01/06 14:42:15;;;;;;;8.93;3.13;;;5.10;99.90;;;;;;4979929;28;92235;-75
2022/01/06 14:44:40;;;;;;;9.15;2.85;;;5.00;99.90;;;;;;4990150;28;91162;-76
2022/01/06 14:47:06;;;;;;;8.70;2.53;;;5.00;99.90;;;;;;4990039;28;90319;-75
2022/01/06 14:49:31;;;;;;;8.65;2.83;;;4.90;99.90;;;;;;4993774;28;90013;-76
2022/01/06 14:51:57;;;;;;;10.60;3.20;;;4.80;99.90;;;;;;4989164;28;96481;-75
2022/01/06 14:54:24;;;;;;;8.90;3.40;;;4.60;99.90;;;;;;4987675;28;92502;-75
2022/01/06 14:56:50;;;;;;;12.02;3.88;;;4.50;99.90;;;;;;4988222;28;89390;-75
2022/01/06 14:59:16;;;;;;;9.40;3.60;;;4.40;99.90;;;;;;4986200;28;91522;-75
2022/01/06 15:01:41;;;;;;;10.93;3.60;;;4.20;99.90;;;;;;4989346;28;89575;-75
2022/01/06 15:04:07;;;;;;;10.38;3.70;;;4.10;99.90;;;;;;4988056;28;93801;-75
2022/01/06 15:06:33;;;;;;;10.27;3.25;;;4.00;99.90;;;;;;4988016;28;89213;-75
2022/01/06 15:08:58;;;;;;;9.68;3.25;;;3.90;99.90;;;;;;4989381;28;89324;-75
2022/01/06 15:11:24;;;;;;;15.48;3.80;;;3.70;99.90;;;;;;4988508;28;90861;-76
2022/01/06 15:13:49;;;;;;;11.93;3.40;;;3.50;99.90;;;;;;4988092;28;90960;-78
2022/01/06 15:16:15;;;;;;;13.52;3.55;;;3.40;99.90;;;;;;4984517;28;89320;-77
2022/01/06 15:18:41;;;;;;;12.70;4.22;;;3.20;99.90;;;;;;4977822;28;92414;-75
2022/01/06 15:21:07;;;;;;;10.90;3.78;;;3.10;99.90;;;;;;4977837;28;91724;-75
2022/01/06 15:23:32;;;;;;;12.15;3.70;;;2.90;99.90;;;;;;4981317;28;90018;-75
2022/01/06 15:25:58;;;;;;;11.52;4.35;;;2.70;99.90;;;;;;4997322;28;89210;-75
2022/01/06 15:28:24;;;;;;;10.00;4.32;;;2.50;99.90;;;;;;4998152;28;89052;-75
2022/01/06 15:30:49;;;;;;;10.70;4.57;;;2.30;99.90;;;;;;4995684;28;92810;-75
2022/01/06 15:33:15;;;;;;;12.10;4.82;;;2.10;99.90;;;;;;4997924;28;89663;-75
2022/01/06 15:35:41;;;;;;;13.35;5.55;;;1.90;99.90;;;;;;4997412;28;90309;-75
2022/01/06 15:38:06;;;;;;;12.05;5.38;;;1.80;99.90;;;;;;4998189;28;89601;-75
2022/01/06 15:40:32;;;;;;;12.45;5.20;;;1.70;99.90;;;;;;4998021;28;90390;-76
2022/01/06 15:43:01;;;;;;;13.23;5.25;;;1.50;99.90;;;;;;4996094;28;91608;-75
2022/01/06 15:45:27;;;;;;;17.52;6.57;;;1.30;99.90;;;;;;4997728;28;90005;-75
2022/01/06 15:47:53;;;;;;;16.50;6.18;;;1.20;99.90;;;;;;4997566;28;89788;-75
2022/01/06 15:50:20;;;;;;;13.60;6.55;;;1.10;99.90;;;;;;5009388;28;92973;-75
2022/01/06 15:52:46;;;;;;;17.30;7.50;;;1.00;99.90;;;;;;5000261;28;92256;-75
2022/01/06 15:55:12;;;;;;;17.48;7.78;;;0.90;99.90;;;;;;5013640;28;89295;-76
2022/01/06 15:57:38;;;;;;;15.50;7.07;;;0.80;99.90;;;;;;5003766;28;91277;-74
2022/01/06 16:05:48;;;;;;;18.15;7.03;;;0.50;99.90;;;;;;4992566;28;91081;-75
2022/01/06 16:08:15;;;;;;;17.92;8.48;;;0.40;99.90;;;;;;4997828;28;89872;-75
2022/01/06 16:10:46;;;;;;;22.80;10.57;;;0.30;99.90;;;;;;5001734;28;93008;-75
2022/01/06 16:13:13;;;;;;;20.58;7.93;;;0.30;99.90;;;;;;5006529;28;89771;-75
2022/01/06 16:15:39;;;;;;;19.60;8.15;;;0.20;99.90;;;;;;4996429;28;89258;-75
2022/01/06 16:18:05;;;;;;;16.95;6.60;;;0.10;99.90;;;;;;5013928;28;90208;-75
2022/01/06 16:20:31;;;;;;;17.58;6.65;;;0.00;99.90;;;;;;5000602;28;89981;-75
2022/01/06 16:22:57;;;;;;;21.23;9.45;;;0.00;99.90;;;;;;5007317;28;91891;-75
2022/01/06 16:25:25;;;;;;;20.23;8.88;;;0.10;99.90;;;;;;5007206;28;91304;-75
2022/01/06 16:27:51;;;;;;;24.98;9.45;;;0.10;99.90;;;;;;5002364;28;89594;-75
2022/01/06 16:30:44;;;;;;;21.67;8.98;;;0.10;99.90;;;;;;5001388;28;90316;-75
2022/01/06 16:33:11;;;;;;;20.70;8.93;;;0.20;99.90;;;;;;5004893;28;89293;-75
2022/01/06 16:35:36;;;;;;;18.15;8.68;;;0.10;99.90;;;;;;5003873;28;89624;-75
2022/01/06 16:38:02;;;;;;;24.58;10.40;;;0.00;99.90;;;;;;4992709;28;89709;-75
2022/01/06 16:40:28;;;;;;;22.83;9.90;;;0.00;99.90;;;;;;4993624;28;91846;-75
2022/01/06 16:42:53;;;;;;;21.70;9.32;;;0.00;99.90;;;;;;4990983;28;91813;-75
2022/01/06 16:45:19;;;;;;;20.48;9.32;;;0.00;99.90;;;;;;4994953;28;90702;-75
2022/01/06 16:47:45;;;;;;;20.52;9.57;;;0.10;99.90;;;;;;4994412;28;89974;-76
2022/01/06 16:50:11;;;;;;;26.38;12.88;;;0.00;99.90;;;;;;4993650;28;91877;-75
2022/01/06 16:52:37;;;;;;;29.48;13.70;;;0.00;99.90;;;;;;4999493;28;91151;-75
2022/01/06 16:55:05;;;;;;;25.73;13.00;;;0.00;99.90;;;;;;5007751;28;89322;-75
2022/01/06 16:57:30;;;;;;;26.40;12.35;;;0.10;99.90;;;;;;5007673;28;89855;-75
2022/01/06 16:59:56;;;;;;;30.25;14.98;;;0.00;99.90;;;;;;5016185;28;90094;-75
2022/01/06 17:02:22;;;;;;;38.70;17.35;;;0.10;99.90;;;;;;4996472;28;89590;-75
2022/01/06 17:04:50;;;;;;;31.35;15.32;;;0.00;99.90;;;;;;4976055;28;89541;-75
2022/01/06 17:07:16;;;;;;;32.58;14.77;;;0.00;99.90;;;;;;4995894;28;89683;-75
2022/01/06 17:09:42;;;;;;;24.83;11.68;;;0.00;99.90;;;;;;4999470;28;89404;-76
2022/01/06 17:12:08;;;;;;;27.05;12.23;;;0.00;99.90;;;;;;5012341;28;89336;-75
2022/01/06 17:14:33;;;;;;;27.33;10.50;;;0.00;99.90;;;;;;5021554;22;90551;-75
2022/01/06 17:17:00;;;;;;;28.73;11.13;;;-0.10;99.90;;;;;;5001987;28;90301;-74
2022/01/06 17:19:25;;;;;;;22.60;9.70;;;0.00;99.90;;;;;;5003082;28;93034;-74
2022/01/06 17:21:52;;;;;;;23.05;9.88;;;0.10;99.90;;;;;;5011253;28;93609;-74
2022/01/06 17:24:21;;;;;;;20.63;10.55;;;0.10;99.90;;;;;;4997225;28;89443;-77
2022/01/06 17:26:47;;;;;;;22.58;11.45;;;0.10;99.90;;;;;;5010474;28;89657;-75
2022/01/06 17:29:13;;;;;;;21.60;11.57;;;0.30;99.90;;;;;;5005179;28;90276;-76
2022/01/06 17:31:39;;;;;;;24.83;11.45;;;0.50;99.90;;;;;;5003204;28;89545;-76
2022/01/06 17:34:05;;;;;;;25.33;12.45;;;0.50;99.90;;;;;;5011756;28;89241;-75
2022/01/06 17:36:30;;;;;;;27.42;12.68;;;0.50;99.90;;;;;;4991391;28;89716;-76
2022/01/06 17:38:56;;;;;;;25.13;12.80;;;0.60;99.90;;;;;;4989462;28;91014;-76
2022/01/06 17:41:24;;;;;;;26.77;12.95;;;0.60;99.90;;;;;;4991401;28;91138;-77
2022/01/06 17:43:50;;;;;;;31.77;16.17;;;0.60;99.90;;;;;;4988858;28;89747;-74
2022/01/06 17:46:15;;;;;;;45.63;24.35;;;0.50;99.90;;;;;;4992840;28;89463;-77
2022/01/06 17:48:41;;;;;;;48.70;27.20;;;0.50;99.90;;;;;;4991365;28;92583;-76
2022/01/06 17:51:07;;;;;;;48.83;24.70;;;0.40;99.90;;;;;;4987705;28;89310;-77
2022/01/06 17:53:33;;;;;;;37.42;18.92;;;0.50;99.90;;;;;;4996878;28;89588;-76
2022/01/06 17:55:58;;;;;;;50.17;29.70;;;0.40;99.90;;;;;;5002613;28;88869;-76
2022/01/06 17:58:24;;;;;;;45.72;25.27;;;0.40;99.90;;;;;;5000491;28;90409;-76
2022/01/06 18:00:51;;;;;;;43.13;24.50;;;0.30;99.90;;;;;;5011189;28;89305;-75
2022/01/06 18:03:18;;;;;;;38.85;21.38;;;0.20;99.90;;;;;;5008321;28;90415;-76
2022/01/06 18:05:51;;;;;;;38.25;20.70;;;0.00;99.90;;;;;;5002738;28;90790;-75